createdAt,value
2022-09-26T00:02:39.765Z,12.13
2022-09-26T00:18:22.061Z,12.03
2022-09-26T00:34:04.232Z,11.93
2022-09-26T00:49:47.079Z,11.78
2022-09-26T01:05:30.003Z,11.6
2022-09-26T01:21:12.315Z,11.52
2022-09-26T01:36:55.296Z,11.49
2022-09-26T01:52:38.112Z,11.48
2022-09-26T02:08:21.163Z,11.42
2022-09-26T02:24:03.943Z,11.4
2022-09-26T02:39:46.937Z,11.37
2022-09-26T02:55:29.259Z,11.35
2022-09-26T03:11:11.933Z,11.36
2022-09-26T03:26:54.822Z,11.35
2022-09-26T03:42:37.641Z,11.2
2022-09-26T03:58:20.431Z,11.11
2022-09-26T04:14:02.695Z,11.04
2022-09-26T04:29:45.524Z,11
2022-09-26T04:45:28.270Z,10.93
2022-09-26T05:01:10.770Z,10.78
2022-09-26T05:16:53.196Z,10.74
2022-09-26T05:32:35.351Z,10.65
2022-09-26T05:48:17.444Z,10.55
2022-09-26T06:04:00.405Z,10.59
2022-09-26T06:19:43.146Z,10.72
2022-09-26T06:35:25.346Z,11.06
2022-09-26T06:51:08.395Z,11.55
2022-09-26T07:06:51.335Z,12.15
2022-09-26T07:22:34.281Z,12.63
2022-09-26T07:38:17.008Z,12.98
2022-09-26T07:53:59.532Z,13.55
2022-09-26T08:09:42.007Z,14.36
2022-09-26T08:25:24.937Z,15.62
2022-09-26T08:41:07.117Z,17.99
2022-09-26T08:56:49.270Z,18.84
2022-09-26T09:12:32.179Z,18.45
2022-09-26T09:28:14.839Z,20.4
2022-09-26T09:43:57.276Z,20.29
2022-09-26T09:59:39.392Z,20.24
2022-09-26T10:15:21.853Z,20.42
2022-09-26T10:31:04.499Z,21.71
2022-09-26T10:31:51.728Z,21.94
2022-09-26T10:47:33.837Z,20.32
2022-09-26T11:03:16.553Z,20.15
2022-09-26T11:18:58.530Z,23.19
2022-09-26T11:34:40.976Z,20.95
2022-09-26T11:50:23.400Z,18.74
2022-09-26T12:06:05.669Z,18.14
2022-09-26T12:21:47.892Z,17.87
2022-09-26T12:37:29.978Z,20.7
2022-09-26T12:53:12.768Z,19.48
2022-09-26T13:08:55.222Z,19.54
2022-09-26T13:24:37.960Z,19.04
2022-09-26T13:40:20.800Z,18.07
2022-09-26T13:56:03.087Z,17.81
2022-09-26T14:11:45.776Z,18.7
2022-09-26T14:27:27.871Z,18.37
2022-09-26T14:43:09.866Z,17.71
2022-09-26T14:58:52.781Z,17.19
2022-09-26T15:14:35.456Z,16.92
2022-09-26T15:30:17.893Z,16.69
2022-09-26T15:46:00.738Z,16.37
2022-09-26T16:01:43.586Z,16.11
2022-09-26T16:17:25.616Z,15.85
2022-09-26T16:33:07.854Z,15.43
2022-09-26T16:48:50.822Z,14.79
2022-09-26T17:04:33.726Z,14.15
2022-09-26T17:20:16.676Z,13.61
2022-09-26T17:35:58.864Z,13.17
2022-09-26T17:51:41.491Z,12.8
2022-09-26T18:07:23.570Z,12.5
2022-09-26T18:23:06.040Z,12.22
2022-09-26T18:38:48.832Z,12.04
2022-09-26T18:54:30.963Z,12.03
2022-09-26T19:10:14.049Z,11.97
2022-09-26T19:25:56.214Z,11.8
2022-09-26T19:41:38.743Z,11.61
2022-09-26T19:57:21.320Z,11.44
2022-09-26T20:13:03.956Z,11.36
2022-09-26T20:28:47.009Z,11.3
2022-09-26T20:44:29.577Z,11.33
2022-09-26T21:00:12.497Z,11.4
2022-09-26T21:15:54.865Z,11.63
2022-09-26T21:31:37.696Z,11.87
2022-09-26T21:47:20.137Z,12.03
2022-09-26T22:03:02.419Z,12.14
2022-09-26T22:18:44.794Z,12.1
2022-09-26T22:34:27.821Z,12.09
2022-09-26T22:50:10.775Z,12.06
2022-09-26T23:05:53.295Z,11.9
2022-09-26T23:21:35.982Z,11.8
2022-09-26T23:37:18.251Z,11.71
2022-09-26T23:53:00.394Z,11.61
